createdAt,value
2023-03-16T00:23:32.468Z,5.37
2023-03-16T00:26:05.513Z,5.03
2023-03-16T00:28:36.320Z,5.70
2023-03-16T00:31:06.448Z,5.40
2023-03-16T00:33:38.094Z,5.43
2023-03-16T00:36:09.889Z,5.27
2023-03-16T00:38:45.428Z,5.60
2023-03-16T00:41:18.631Z,5.17
2023-03-16T00:44:02.180Z,5.53
2023-03-16T00:46:31.633Z,5.40
2023-03-16T00:49:00.298Z,5.60
2023-03-16T00:51:29.117Z,5.13
2023-03-16T00:54:04.688Z,5.60
2023-03-16T00:56:33.270Z,5.73
2023-03-16T00:59:01.853Z,5.43
2023-03-16T01:01:30.668Z,5.85
2023-03-16T01:04:00.079Z,5.87
2023-03-16T01:06:29.656Z,5.77
2023-03-16T01:09:06.176Z,5.27
2023-03-16T01:11:37.851Z,5.87
2023-03-16T01:14:07.914Z,5.70
2023-03-16T01:16:36.249Z,6.93
2023-03-16T01:19:05.537Z,5.37
2023-03-16T01:21:34.135Z,5.45
2023-03-16T01:24:04.637Z,5.50
2023-03-16T01:26:34.074Z,5.43
2023-03-16T01:29:02.751Z,5.70
2023-03-16T01:31:32.173Z,5.10
2023-03-16T01:34:01.357Z,5.67
2023-03-16T01:36:30.231Z,5.47
2023-03-16T01:39:00.286Z,5.47
2023-03-16T01:41:34.465Z,5.77
2023-03-16T01:44:03.355Z,5.73
2023-03-16T01:46:35.424Z,5.90
2023-03-16T01:49:09.597Z,5.40
2023-03-16T01:51:43.328Z,5.50
2023-03-16T01:54:17.750Z,5.87
2023-03-16T01:56:55.856Z,5.63
2023-03-16T01:59:32.534Z,5.30
2023-03-16T02:02:02.176Z,5.50
2023-03-16T02:04:48.579Z,5.80
2023-03-16T02:07:19.183Z,5.60
2023-03-16T02:09:52.163Z,6.37
2023-03-16T02:12:23.084Z,5.60
2023-03-16T02:14:52.985Z,5.73
2023-03-16T02:17:27.321Z,5.60
2023-03-16T02:20:09.207Z,6.17
2023-03-16T02:22:39.263Z,6.43
2023-03-16T02:25:08.443Z,6.13
2023-03-16T02:27:44.306Z,6.37
2023-03-16T02:30:16.058Z,6.77
2023-03-16T02:32:46.205Z,5.93
2023-03-16T02:35:15.383Z,7.03
2023-03-16T02:37:44.587Z,6.80
2023-03-16T02:40:29.624Z,8.37
2023-03-16T02:43:08.978Z,9.23
2023-03-16T02:45:43.353Z,9.88
2023-03-16T02:48:19.216Z,10.10
2023-03-16T02:50:49.921Z,12.60
2023-03-16T02:53:18.674Z,14.17
2023-03-16T02:55:47.529Z,14.93
2023-03-16T02:58:17.364Z,17.53
2023-03-16T03:00:47.688Z,19.07
2023-03-16T03:03:16.263Z,23.20
2023-03-16T03:05:45.151Z,25.23
2023-03-16T03:08:14.308Z,26.50
2023-03-16T03:10:43.218Z,30.77
2023-03-16T03:13:12.547Z,30.83
2023-03-16T03:15:41.302Z,31.77
2023-03-16T03:18:11.577Z,31.93
2023-03-16T03:20:40.267Z,33.67
2023-03-16T03:23:09.001Z,32.40
2023-03-16T03:25:40.319Z,33.40
2023-03-16T03:28:09.352Z,32.47
2023-03-16T03:30:38.976Z,34.20
2023-03-16T03:33:08.309Z,33.90
2023-03-16T03:35:39.143Z,32.83
2023-03-16T03:38:08.532Z,32.33
2023-03-16T03:40:37.216Z,32.27
2023-03-16T03:43:06.592Z,30.60
2023-03-16T03:45:35.128Z,29.50
2023-03-16T03:48:03.969Z,31.37
2023-03-16T03:50:32.549Z,30.40
2023-03-16T03:53:02.797Z,30.90
2023-03-16T03:55:31.483Z,28.47
2023-03-16T03:58:01.691Z,27.90
2023-03-16T04:00:31.207Z,27.03
2023-03-16T04:03:00.081Z,27.60
2023-03-16T04:05:28.798Z,27.15
2023-03-16T04:07:57.970Z,27.17
2023-03-16T04:10:30.537Z,28.03
2023-03-16T04:12:59.916Z,28.50
2023-03-16T04:15:36.653Z,27.67
2023-03-16T04:18:05.948Z,28.13
2023-03-16T04:20:38.159Z,29.10
2023-03-16T04:23:06.660Z,28.03
2023-03-16T04:25:39.833Z,29.77
2023-03-16T04:28:09.786Z,28.93
2023-03-16T04:30:44.211Z,28.80
2023-03-16T04:33:15.839Z,29.63
2023-03-16T04:35:46.268Z,31.27
2023-03-16T04:38:18.225Z,31.67
2023-03-16T04:40:48.807Z,33.90
2023-03-16T04:43:17.407Z,34.23
2023-03-16T04:45:47.054Z,33.90
2023-03-16T04:48:15.926Z,34.27
2023-03-16T04:50:45.225Z,34.60
2023-03-16T04:53:13.931Z,34.00
2023-03-16T04:55:43.234Z,34.73
2023-03-16T04:58:15.295Z,34.50
2023-03-16T05:00:43.992Z,33.70
2023-03-16T05:03:12.657Z,33.30
2023-03-16T05:05:42.854Z,33.20
2023-03-16T05:08:12.900Z,33.43
2023-03-16T05:10:42.030Z,33.13
2023-03-16T05:13:10.746Z,33.53
2023-03-16T05:15:43.850Z,33.97
2023-03-16T05:18:12.455Z,32.50
2023-03-16T05:20:41.621Z,32.73
2023-03-16T05:23:10.208Z,32.73
2023-03-16T05:25:40.598Z,34.00
2023-03-16T05:28:09.686Z,33.50
2023-03-16T05:30:38.624Z,34.07
2023-03-16T05:33:08.832Z,34.03
2023-03-16T05:35:38.704Z,33.73
2023-03-16T05:38:07.691Z,34.73
2023-03-16T05:40:40.342Z,33.40
2023-03-16T05:46:23.626Z,33.73
2023-03-16T05:49:07.869Z,33.40
2023-03-16T05:51:44.146Z,33.20
2023-03-16T05:54:20.509Z,33.27
2023-03-16T05:56:57.790Z,32.33
2023-03-16T05:59:26.576Z,32.20
2023-03-16T06:01:56.582Z,33.47
2023-03-16T06:04:27.131Z,32.97
2023-03-16T06:06:59.113Z,33.73
2023-03-16T06:09:28.125Z,33.30
2023-03-16T06:11:56.675Z,32.77
2023-03-16T06:14:25.522Z,32.70
2023-03-16T06:16:53.776Z,32.70
2023-03-16T06:19:22.367Z,32.37
2023-03-16T06:21:52.275Z,32.70
2023-03-16T06:27:55.950Z,32.00
2023-03-16T06:30:24.932Z,33.03
2023-03-16T06:32:53.660Z,32.70
2023-03-16T06:35:22.519Z,31.93
2023-03-16T06:37:52.069Z,32.53
2023-03-16T06:40:20.497Z,33.47
2023-03-16T06:42:49.644Z,33.07
2023-03-16T06:45:22.232Z,32.77
2023-03-16T06:47:51.241Z,32.33
2023-03-16T06:50:23.067Z,32.73
2023-03-16T06:53:01.857Z,32.57
2023-03-16T06:55:31.870Z,32.50
2023-03-16T06:58:00.586Z,32.07
2023-03-16T07:00:32.014Z,33.73
2023-03-16T07:03:01.183Z,32.80
2023-03-16T07:05:33.321Z,33.50
2023-03-16T07:08:07.449Z,32.50
2023-03-16T07:10:36.835Z,33.23
2023-03-16T07:13:07.646Z,32.73
2023-03-16T07:15:47.329Z,33.10
2023-03-16T07:18:16.012Z,33.10
2023-03-16T07:20:44.538Z,33.07
2023-03-16T07:23:14.905Z,32.23
2023-03-16T07:25:45.025Z,33.00
2023-03-16T07:28:13.946Z,32.30
2023-03-16T07:30:53.221Z,31.63
2023-03-16T07:33:29.389Z,31.43
2023-03-16T07:35:57.984Z,32.23
2023-03-16T07:38:28.321Z,31.37
2023-03-16T07:40:57.357Z,31.80
2023-03-16T07:43:26.302Z,31.83
2023-03-16T07:45:56.948Z,31.90
2023-03-16T07:48:48.545Z,31.27
2023-03-16T07:51:38.166Z,31.70
2023-03-16T07:54:08.494Z,32.07
2023-03-16T07:56:48.426Z,32.30
2023-03-16T07:59:20.861Z,32.53
2023-03-16T08:01:49.809Z,31.80
2023-03-16T08:04:18.307Z,31.80
2023-03-16T08:06:48.707Z,31.90
2023-03-16T08:09:21.941Z,31.57
2023-03-16T08:11:51.340Z,31.90
2023-03-16T08:14:20.065Z,31.88
2023-03-16T08:16:50.728Z,31.15
2023-03-16T08:19:20.649Z,31.92
2023-03-16T08:22:01.185Z,31.63
2023-03-16T08:24:31.913Z,32.60
2023-03-16T08:27:01.554Z,32.33
2023-03-16T08:29:32.244Z,31.95
2023-03-16T08:32:00.544Z,31.43
2023-03-16T08:34:29.281Z,31.73
2023-03-16T08:36:57.630Z,31.80
2023-03-16T08:39:26.054Z,31.70
2023-03-16T08:41:56.686Z,30.33
2023-03-16T08:44:26.446Z,30.50
2023-03-16T08:46:55.429Z,29.52
2023-03-16T08:49:24.152Z,28.55
2023-03-16T08:51:52.491Z,26.98
2023-03-16T08:54:21.140Z,27.27
2023-03-16T08:56:49.810Z,25.08
2023-03-16T08:59:29.054Z,24.90
2023-03-16T09:01:58.877Z,23.02
2023-03-16T09:04:28.562Z,21.35
2023-03-16T09:07:10.807Z,18.23
2023-03-16T09:09:39.867Z,15.13
2023-03-16T09:12:08.744Z,15.25
2023-03-16T09:14:39.722Z,11.73
2023-03-16T09:17:09.280Z,10.77
2023-03-16T09:19:50.604Z,9.77
2023-03-16T09:22:19.650Z,8.32
2023-03-16T09:24:48.559Z,7.35
2023-03-16T09:27:20.732Z,5.55
2023-03-16T09:29:52.981Z,4.60
2023-03-16T09:32:22.084Z,4.45
2023-03-16T09:34:50.768Z,3.75
2023-03-16T09:37:18.997Z,3.55
2023-03-16T09:39:48.160Z,3.08
2023-03-16T09:42:24.241Z,2.65
2023-03-16T09:45:06.675Z,2.80
2023-03-16T09:47:36.179Z,2.70
2023-03-16T09:50:11.023Z,2.90
2023-03-16T09:52:45.168Z,2.70
2023-03-16T09:55:23.803Z,2.90
2023-03-16T09:57:56.178Z,2.63
2023-03-16T10:00:29.064Z,2.80
2023-03-16T10:03:06.509Z,2.42
2023-03-16T10:05:37.263Z,2.22
2023-03-16T10:08:13.936Z,2.30
2023-03-16T10:11:18.593Z,2.50
2023-03-16T10:13:52.649Z,2.45
2023-03-16T10:16:27.248Z,2.22
2023-03-16T10:19:02.892Z,2.97
2023-03-16T10:21:35.347Z,2.50
2023-03-16T10:24:05.606Z,2.38
2023-03-16T10:26:40.898Z,2.35
2023-03-16T10:29:14.785Z,2.28
2023-03-16T10:31:46.185Z,2.38
2023-03-16T10:34:15.359Z,2.10
2023-03-16T10:36:45.916Z,2.40
2023-03-16T10:39:16.410Z,2.30
2023-03-16T10:41:47.232Z,2.60
2023-03-16T10:44:18.445Z,2.30
2023-03-16T10:46:50.671Z,2.53
2023-03-16T10:49:25.889Z,2.30
2023-03-16T10:51:55.715Z,2.40
2023-03-16T10:54:30.560Z,2.45
2023-03-16T10:56:59.274Z,2.22
2023-03-16T10:59:34.441Z,2.45
2023-03-16T11:02:17.178Z,2.55
2023-03-16T11:04:47.220Z,2.40
2023-03-16T11:07:20.995Z,2.20
2023-03-16T11:09:52.812Z,2.22
2023-03-16T11:12:26.978Z,2.58
2023-03-16T11:14:56.387Z,2.50
2023-03-16T11:17:35.374Z,2.25
2023-03-16T11:20:14.575Z,2.30
2023-03-16T11:22:47.418Z,2.00
2023-03-16T11:25:20.723Z,2.33
2023-03-16T11:27:55.600Z,2.30
2023-03-16T11:30:31.062Z,2.30
2023-03-16T11:33:01.626Z,2.10
2023-03-16T11:35:46.546Z,2.13
2023-03-16T11:38:22.905Z,1.83
2023-03-16T11:40:59.344Z,2.45
2023-03-16T11:43:53.618Z,2.40
2023-03-16T11:46:25.134Z,2.33
2023-03-16T11:49:32.945Z,2.10
2023-03-16T11:52:06.517Z,1.88
2023-03-16T11:54:55.660Z,1.80
2023-03-16T11:57:36.051Z,2.10
2023-03-16T12:00:28.329Z,1.60
2023-03-16T12:03:17.590Z,2.17
2023-03-16T12:05:57.730Z,1.90
2023-03-16T12:08:48.926Z,1.65
2023-03-16T12:11:24.440Z,1.70
2023-03-16T12:14:04.375Z,2.53
2023-03-16T12:16:48.644Z,2.20
2023-03-16T12:19:25.764Z,1.80
2023-03-16T12:22:04.346Z,1.90
2023-03-16T12:24:38.342Z,2.20
2023-03-16T12:27:08.651Z,1.90
2023-03-16T12:29:43.907Z,2.20
2023-03-16T12:32:17.455Z,1.80
2023-03-16T12:34:52.386Z,2.15
2023-03-16T12:37:39.103Z,2.00
2023-03-16T12:40:23.469Z,1.75
2023-03-16T12:43:27.134Z,2.05
2023-03-16T12:46:05.595Z,1.92
2023-03-16T12:48:49.977Z,1.60
2023-03-16T12:51:18.595Z,1.80
2023-03-16T12:53:57.406Z,1.80
2023-03-16T12:56:31.072Z,2.17
2023-03-16T12:59:05.965Z,2.00
2023-03-16T13:01:43.814Z,1.92
2023-03-16T13:04:24.312Z,2.00
2023-03-16T13:07:03.867Z,2.20
2023-03-16T13:09:37.224Z,2.63
2023-03-16T13:12:06.734Z,1.85
2023-03-16T13:14:43.112Z,1.70
2023-03-16T13:17:29.180Z,1.63
2023-03-16T13:20:03.288Z,1.50
2023-03-16T13:22:44.335Z,1.48
2023-03-16T13:25:23.325Z,1.70
2023-03-16T13:27:56.031Z,1.98
2023-03-16T13:30:29.749Z,1.77
2023-03-16T13:33:03.540Z,1.67
2023-03-16T13:35:33.166Z,1.80
2023-03-16T13:38:05.662Z,1.40
2023-03-16T13:40:38.030Z,2.22
2023-03-16T13:43:07.197Z,2.00
2023-03-16T13:45:39.235Z,1.55
2023-03-16T13:48:07.777Z,1.67
2023-03-16T13:50:38.663Z,1.98
2023-03-16T13:53:15.043Z,1.52
2023-03-16T13:55:48.661Z,2.20
2023-03-16T13:58:23.644Z,1.98
2023-03-16T14:00:55.926Z,2.08
2023-03-16T14:03:24.757Z,1.75
2023-03-16T14:05:53.640Z,1.35
2023-03-16T14:08:26.973Z,1.58
2023-03-16T14:11:00.925Z,2.17
2023-03-16T14:13:39.539Z,1.73
2023-03-16T14:16:14.293Z,1.63
2023-03-16T14:18:44.350Z,1.83
2023-03-16T14:21:17.944Z,1.30
2023-03-16T14:23:47.928Z,1.40
2023-03-16T14:26:19.920Z,1.58
2023-03-16T14:29:02.964Z,1.60
2023-03-16T14:31:36.357Z,1.30
2023-03-16T14:34:08.872Z,1.52
2023-03-16T14:36:39.174Z,1.55
2023-03-16T14:39:14.501Z,1.63
2023-03-16T14:41:45.332Z,1.33
2023-03-16T14:44:24.094Z,1.55
2023-03-16T14:46:54.036Z,1.48
2023-03-16T14:49:26.043Z,1.67
2023-03-16T14:51:56.918Z,1.30
2023-03-16T14:54:26.176Z,1.38
2023-03-16T14:57:00.966Z,1.40
2023-03-16T14:59:29.584Z,1.58
2023-03-16T15:01:59.367Z,1.50
2023-03-16T15:04:31.361Z,1.33
2023-03-16T15:06:59.831Z,1.60
2023-03-16T15:09:35.616Z,1.52
2023-03-16T15:12:06.006Z,1.95
2023-03-16T15:14:48.477Z,1.52
2023-03-16T15:17:18.931Z,1.52
2023-03-16T15:20:16.352Z,1.55
2023-03-16T15:22:46.214Z,1.75
2023-03-16T15:25:24.334Z,1.50
2023-03-16T15:27:55.053Z,1.55
2023-03-16T15:30:26.379Z,1.52
2023-03-16T15:32:54.987Z,1.40
2023-03-16T15:35:27.173Z,1.73
2023-03-16T15:38:07.125Z,1.90
2023-03-16T15:40:37.028Z,1.60
2023-03-16T15:43:18.807Z,1.65
2023-03-16T15:45:50.620Z,1.42
2023-03-16T15:48:20.430Z,1.75
2023-03-16T15:50:54.953Z,1.33
2023-03-16T15:53:30.838Z,1.42
2023-03-16T15:56:03.845Z,1.38
2023-03-16T15:58:35.299Z,1.88
2023-03-16T16:01:05.353Z,1.70
2023-03-16T16:03:34.067Z,2.08
2023-03-16T16:06:03.187Z,2.10
2023-03-16T16:08:31.562Z,1.90
2023-03-16T16:10:59.930Z,1.42
2023-03-16T16:13:43.473Z,2.00
2023-03-16T16:16:16.939Z,1.67
2023-03-16T16:18:46.632Z,2.15
2023-03-16T16:21:18.154Z,1.70
2023-03-16T16:23:46.578Z,1.30
2023-03-16T16:26:41.505Z,1.90
2023-03-16T16:29:17.370Z,1.55
2023-03-16T16:31:47.222Z,1.45
2023-03-16T16:34:17.717Z,1.55
2023-03-16T16:36:52.341Z,1.40
2023-03-16T16:39:20.815Z,2.00
2023-03-16T16:41:50.871Z,1.60
2023-03-16T16:44:23.614Z,1.63
2023-03-16T16:46:54.999Z,1.60
2023-03-16T16:49:26.036Z,1.60
2023-03-16T16:51:56.972Z,1.70
2023-03-16T16:54:29.276Z,2.00
2023-03-16T16:56:59.180Z,2.25
2023-03-16T16:59:30.626Z,1.85
2023-03-16T17:02:01.916Z,2.10
2023-03-16T17:04:30.818Z,1.92
2023-03-16T17:07:01.955Z,1.75
2023-03-16T17:09:36.939Z,2.50
2023-03-16T17:12:33.320Z,1.70
2023-03-16T17:15:01.585Z,1.95
2023-03-16T17:17:31.919Z,1.52
2023-03-16T17:20:00.161Z,1.70
2023-03-16T17:22:30.341Z,1.65
2023-03-16T17:24:58.549Z,1.65
2023-03-16T17:27:29.692Z,2.22
2023-03-16T17:29:58.675Z,1.70
2023-03-16T17:32:27.203Z,2.17
2023-03-16T17:34:58.943Z,3.00
2023-03-16T17:37:30.555Z,3.05
2023-03-16T17:39:58.721Z,3.35
2023-03-16T17:42:27.223Z,3.83
2023-03-16T17:44:58.561Z,3.83
2023-03-16T17:47:28.675Z,4.25
2023-03-16T17:49:58.514Z,4.05
2023-03-16T17:52:30.384Z,3.25
2023-03-16T17:54:59.043Z,2.53
2023-03-16T17:57:32.480Z,2.60
2023-03-16T18:00:02.135Z,2.85
2023-03-16T18:02:45.144Z,6.28
2023-03-16T18:05:21.672Z,5.47
2023-03-16T18:07:50.854Z,4.68
2023-03-16T18:10:24.045Z,3.50
2023-03-16T18:12:59.928Z,3.63
2023-03-16T18:15:33.322Z,3.15
2023-03-16T18:18:15.743Z,3.10
2023-03-16T18:20:55.568Z,3.67
2023-03-16T18:23:30.438Z,3.42
2023-03-16T18:26:03.338Z,3.17
2023-03-16T18:28:33.287Z,3.10
2023-03-16T18:31:06.159Z,3.38
2023-03-16T18:33:41.256Z,3.47
2023-03-16T18:36:19.628Z,2.97
2023-03-16T18:38:54.983Z,2.78
2023-03-16T18:41:30.486Z,2.40
2023-03-16T18:44:04.074Z,2.30
2023-03-16T18:46:35.039Z,2.33
2023-03-16T18:49:06.616Z,2.63
2023-03-16T18:51:42.193Z,3.15
2023-03-16T18:54:38.156Z,2.72
2023-03-16T18:57:16.547Z,3.42
2023-03-16T18:59:48.089Z,2.70
2023-03-16T19:02:29.957Z,2.58
2023-03-16T19:05:01.535Z,2.67
2023-03-16T19:07:36.714Z,2.05
2023-03-16T19:10:16.649Z,2.17
2023-03-16T19:12:45.220Z,2.47
2023-03-16T19:15:21.847Z,2.22
2023-03-16T19:17:53.809Z,2.38
2023-03-16T19:20:27.346Z,2.72
2023-03-16T19:23:03.097Z,2.60
2023-03-16T19:25:37.694Z,2.53
2023-03-16T19:28:07.840Z,2.40
2023-03-16T19:30:37.655Z,1.67
2023-03-16T19:33:18.617Z,1.98
2023-03-16T19:35:51.973Z,2.10
2023-03-16T19:38:27.118Z,2.25
2023-03-16T19:41:04.007Z,2.40
2023-03-16T19:43:32.598Z,2.47
2023-03-16T19:46:06.256Z,2.67
2023-03-16T19:48:35.769Z,2.80
2023-03-16T19:51:06.994Z,2.42
2023-03-16T19:53:38.798Z,2.90
2023-03-16T19:56:18.367Z,3.45
2023-03-16T19:58:48.775Z,3.08
2023-03-16T20:01:22.516Z,3.50
2023-03-16T20:03:57.669Z,2.83
2023-03-16T20:06:30.422Z,3.08
2023-03-16T20:09:00.236Z,2.67
2023-03-16T20:11:33.949Z,2.20
2023-03-16T20:14:17.454Z,2.60
2023-03-16T20:16:48.296Z,2.58
2023-03-16T20:19:17.870Z,2.45
2023-03-16T20:21:54.254Z,2.40
2023-03-16T20:24:34.025Z,2.38
2023-03-16T20:27:05.849Z,2.42
2023-03-16T20:29:49.304Z,2.13
2023-03-16T20:32:36.422Z,2.30
2023-03-16T20:35:05.094Z,2.72
2023-03-16T20:37:34.180Z,2.65
2023-03-16T20:40:09.750Z,2.25
2023-03-16T20:42:38.833Z,2.40
2023-03-16T20:45:21.206Z,2.80
2023-03-16T20:47:49.937Z,2.45
2023-03-16T20:50:22.861Z,2.90
2023-03-16T20:52:51.967Z,3.03
2023-03-16T20:55:25.259Z,3.03
2023-03-16T20:57:58.633Z,2.67
2023-03-16T21:00:33.623Z,2.67
2023-03-16T21:03:05.266Z,2.80
2023-03-16T21:05:34.178Z,2.72
2023-03-16T21:08:02.693Z,2.67
2023-03-16T21:10:32.891Z,2.60
2023-03-16T21:13:01.671Z,2.88
2023-03-16T21:15:32.400Z,2.70
2023-03-16T21:18:03.686Z,1.95
2023-03-16T21:20:33.576Z,3.08
2023-03-16T21:23:02.758Z,3.10
2023-03-16T21:25:35.683Z,2.30
2023-03-16T21:28:06.465Z,2.80
2023-03-16T21:30:38.527Z,2.40
2023-03-16T21:33:19.159Z,2.63
2023-03-16T21:35:53.533Z,3.00
2023-03-16T21:38:44.068Z,3.28
2023-03-16T21:41:15.387Z,2.88
2023-03-16T21:43:54.148Z,2.35
2023-03-16T21:46:27.072Z,3.10
2023-03-16T21:49:13.703Z,3.10
2023-03-16T21:51:55.818Z,3.35
2023-03-16T21:54:24.092Z,3.67
2023-03-16T21:57:00.761Z,3.35
2023-03-16T21:59:29.859Z,2.50
2023-03-16T22:02:02.203Z,2.53
2023-03-16T22:07:54.788Z,2.80
2023-03-16T22:10:26.739Z,2.78
2023-03-16T22:12:58.330Z,2.67
2023-03-16T22:15:28.405Z,2.67
2023-03-16T22:18:09.787Z,2.60
2023-03-16T22:20:38.541Z,2.78
2023-03-16T22:23:07.631Z,2.80
2023-03-16T22:25:36.262Z,3.55
2023-03-16T22:28:13.334Z,3.20
2023-03-16T22:30:43.290Z,3.42
2023-03-16T22:33:15.222Z,2.88
2023-03-16T22:35:44.077Z,2.80
2023-03-16T22:38:15.654Z,2.55
2023-03-16T22:40:44.540Z,2.90
2023-03-16T22:43:30.196Z,3.10
2023-03-16T22:46:01.152Z,2.83
2023-03-16T22:48:32.839Z,3.15
2023-03-16T22:51:04.759Z,2.70
2023-03-16T22:53:41.665Z,2.75
2023-03-16T22:56:11.632Z,2.70
2023-03-16T22:58:44.904Z,2.65
2023-03-16T23:01:18.712Z,2.60
2023-03-16T23:03:50.596Z,2.70
2023-03-16T23:06:21.855Z,2.63
2023-03-16T23:08:51.294Z,2.78
2023-03-16T23:11:23.934Z,2.83
2023-03-16T23:13:55.293Z,3.20
2023-03-16T23:16:28.914Z,2.90
2023-03-16T23:18:57.857Z,3.13
2023-03-16T23:21:28.356Z,2.60
2023-03-16T23:24:03.902Z,2.90
2023-03-16T23:26:35.071Z,3.17
2023-03-16T23:29:07.183Z,2.75
2023-03-16T23:31:36.589Z,3.10
2023-03-16T23:34:12.803Z,2.80
2023-03-16T23:36:42.322Z,2.70
2023-03-16T23:39:12.658Z,2.60
2023-03-16T23:41:44.748Z,2.78
2023-03-16T23:44:18.291Z,2.63
2023-03-16T23:46:48.334Z,2.65
2023-03-16T23:49:20.609Z,2.75
2023-03-16T23:51:50.790Z,2.58
2023-03-16T23:54:21.963Z,2.65
2023-03-16T23:56:51.187Z,2.65
2023-03-16T23:59:23.730Z,2.75
